sensor_id;sensor_type;location;lat;lon;timestamp;P1;durP1;ratioP1;P2;durP2;ratioP2
1995;SDS011;38556;47.068;15.408;2023-07-02T00:01:59;18.23;;;17.43;;
1995;SDS011;38556;47.068;15.408;2023-07-02T00:04:26;18.13;;;17.13;;
1995;SDS011;38556;47.068;15.408;2023-07-02T00:06:55;18.17;;;17.20;;
1995;SDS011;38556;47.068;15.408;2023-07-02T00:09:22;18.20;;;17.30;;
1995;SDS011;38556;47.068;15.408;2023-07-02T00:11:49;18.13;;;17.23;;
1995;SDS011;38556;47.068;15.408;2023-07-02T00:14:16;18.13;;;17.20;;
1995;SDS011;38556;47.068;15.408;2023-07-02T00:16:45;19.10;;;18.10;;
1995;SDS011;38556;47.068;15.408;2023-07-02T00:19:13;18.00;;;17.10;;
1995;SDS011;38556;47.068;15.408;2023-07-02T00:21:40;18.80;;;17.90;;
1995;SDS011;38556;47.068;15.408;2023-07-02T00:24:10;18.97;;;17.97;;
1995;SDS011;38556;47.068;15.408;2023-07-02T00:26:37;18.80;;;17.80;;
1995;SDS011;38556;47.068;15.408;2023-07-02T00:29:06;19.23;;;18.10;;
1995;SDS011;38556;47.068;15.408;2023-07-02T00:31:34;18.90;;;17.90;;
1995;SDS011;38556;47.068;15.408;2023-07-02T00:34:02;19.27;;;18.27;;
1995;SDS011;38556;47.068;15.408;2023-07-02T00:36:29;19.63;;;18.43;;
1995;SDS011;38556;47.068;15.408;2023-07-02T00:38:57;18.90;;;17.90;;
1995;SDS011;38556;47.068;15.408;2023-07-02T00:41:26;19.20;;;18.10;;
1995;SDS011;38556;47.068;15.408;2023-07-02T00:43:53;18.27;;;17.37;;
1995;SDS011;38556;47.068;15.408;2023-07-02T00:46:22;19.07;;;18.10;;
1995;SDS011;38556;47.068;15.408;2023-07-02T00:48:50;20.30;;;19.03;;
1995;SDS011;38556;47.068;15.408;2023-07-02T00:51:20;19.20;;;18.20;;
1995;SDS011;38556;47.068;15.408;2023-07-02T00:53:49;20.57;;;19.37;;
1995;SDS011;38556;47.068;15.408;2023-07-02T00:56:16;19.23;;;18.23;;
1995;SDS011;38556;47.068;15.408;2023-07-02T00:58:46;19.43;;;18.43;;
1995;SDS011;38556;47.068;15.408;2023-07-02T01:01:16;19.67;;;18.67;;
1995;SDS011;38556;47.068;15.408;2023-07-02T01:03:52;19.97;;;18.70;;
1995;SDS011;38556;47.068;15.408;2023-07-02T01:06:22;19.90;;;18.80;;
1995;SDS011;38556;47.068;15.408;2023-07-02T01:08:54;19.17;;;18.20;;
1995;SDS011;38556;47.068;15.408;2023-07-02T01:11:23;19.97;;;18.87;;
1995;SDS011;38556;47.068;15.408;2023-07-02T01:13:56;19.90;;;18.60;;
1995;SDS011;38556;47.068;15.408;2023-07-02T01:16:27;19.30;;;18.30;;
1995;SDS011;38556;47.068;15.408;2023-07-02T01:18:58;19.17;;;18.07;;
1995;SDS011;38556;47.068;15.408;2023-07-02T01:21:29;19.20;;;18.20;;
1995;SDS011;38556;47.068;15.408;2023-07-02T01:23:57;18.60;;;17.60;;
1995;SDS011;38556;47.068;15.408;2023-07-02T01:26:27;20.60;;;19.30;;
1995;SDS011;38556;47.068;15.408;2023-07-02T01:28:55;20.03;;;18.93;;
1995;SDS011;38556;47.068;15.408;2023-07-02T01:31:22;20.30;;;19.10;;
1995;SDS011;38556;47.068;15.408;2023-07-02T01:33:51;20.20;;;19.10;;
1995;SDS011;38556;47.068;15.408;2023-07-02T01:36:18;19.10;;;18.10;;
1995;SDS011;38556;47.068;15.408;2023-07-02T01:38:46;20.30;;;19.20;;
1995;SDS011;38556;47.068;15.408;2023-07-02T01:41:14;20.30;;;19.10;;
1995;SDS011;38556;47.068;15.408;2023-07-02T01:43:41;20.00;;;18.73;;
1995;SDS011;38556;47.068;15.408;2023-07-02T01:46:08;19.97;;;18.97;;
1995;SDS011;38556;47.068;15.408;2023-07-02T01:48:35;18.87;;;17.87;;
1995;SDS011;38556;47.068;15.408;2023-07-02T01:51:03;19.60;;;18.17;;
1995;SDS011;38556;47.068;15.408;2023-07-02T01:53:30;19.37;;;18.27;;
1995;SDS011;38556;47.068;15.408;2023-07-02T01:55:58;20.03;;;18.93;;
1995;SDS011;38556;47.068;15.408;2023-07-02T01:58:26;19.50;;;18.50;;
1995;SDS011;38556;47.068;15.408;2023-07-02T02:00:53;19.40;;;18.30;;
1995;SDS011;38556;47.068;15.408;2023-07-02T02:03:21;19.90;;;18.80;;
1995;SDS011;38556;47.068;15.408;2023-07-02T02:05:49;19.80;;;18.70;;
1995;SDS011;38556;47.068;15.408;2023-07-02T02:08:16;21.37;;;20.07;;
1995;SDS011;38556;47.068;15.408;2023-07-02T02:10:44;20.87;;;19.00;;
1995;SDS011;38556;47.068;15.408;2023-07-02T02:13:12;20.27;;;19.17;;
1995;SDS011;38556;47.068;15.408;2023-07-02T02:15:40;21.50;;;20.20;;
1995;SDS011;38556;47.068;15.408;2023-07-02T02:18:07;21.33;;;19.97;;
1995;SDS011;38556;47.068;15.408;2023-07-02T02:20:34;20.50;;;19.40;;
1995;SDS011;38556;47.068;15.408;2023-07-02T02:23:02;20.70;;;19.60;;
1995;SDS011;38556;47.068;15.408;2023-07-02T02:25:29;21.60;;;20.40;;
1995;SDS011;38556;47.068;15.408;2023-07-02T02:27:56;21.20;;;20.00;;
1995;SDS011;38556;47.068;15.408;2023-07-02T02:30:25;21.70;;;20.47;;
1995;SDS011;38556;47.068;15.408;2023-07-02T02:32:52;23.63;;;22.13;;
1995;SDS011;38556;47.068;15.408;2023-07-02T02:35:20;20.50;;;19.30;;
1995;SDS011;38556;47.068;15.408;2023-07-02T02:37:47;20.93;;;19.83;;
1995;SDS011;38556;47.068;15.408;2023-07-02T02:40:15;20.60;;;19.50;;
1995;SDS011;38556;47.068;15.408;2023-07-02T02:42:42;21.10;;;19.97;;
1995;SDS011;38556;47.068;15.408;2023-07-02T02:45:10;22.60;;;21.07;;
1995;SDS011;38556;47.068;15.408;2023-07-02T02:47:38;21.87;;;20.57;;
1995;SDS011;38556;47.068;15.408;2023-07-02T02:50:07;21.37;;;20.07;;
1995;SDS011;38556;47.068;15.408;2023-07-02T02:52:35;20.87;;;19.67;;
1995;SDS011;38556;47.068;15.408;2023-07-02T02:55:04;20.40;;;19.30;;
1995;SDS011;38556;47.068;15.408;2023-07-02T02:57:33;21.53;;;20.33;;
1995;SDS011;38556;47.068;15.408;2023-07-02T03:00:00;22.00;;;20.60;;
1995;SDS011;38556;47.068;15.408;2023-07-02T03:02:28;20.73;;;19.67;;
1995;SDS011;38556;47.068;15.408;2023-07-02T03:04:57;21.00;;;19.90;;
1995;SDS011;38556;47.068;15.408;2023-07-02T03:07:27;21.03;;;19.73;;
1995;SDS011;38556;47.068;15.408;2023-07-02T03:09:55;22.17;;;20.73;;
1995;SDS011;38556;47.068;15.408;2023-07-02T03:12:22;21.60;;;20.30;;
1995;SDS011;38556;47.068;15.408;2023-07-02T03:14:50;21.07;;;19.87;;
1995;SDS011;38556;47.068;15.408;2023-07-02T03:17:19;22.03;;;20.50;;
1995;SDS011;38556;47.068;15.408;2023-07-02T03:19:47;20.97;;;19.77;;
1995;SDS011;38556;47.068;15.408;2023-07-02T03:22:15;21.33;;;20.03;;
1995;SDS011;38556;47.068;15.408;2023-07-02T03:24:43;22.50;;;21.10;;
1995;SDS011;38556;47.068;15.408;2023-07-02T03:27:10;21.87;;;20.67;;
1995;SDS011;38556;47.068;15.408;2023-07-02T03:29:38;22.20;;;20.80;;
1995;SDS011;38556;47.068;15.408;2023-07-02T03:32:05;21.53;;;20.30;;
1995;SDS011;38556;47.068;15.408;2023-07-02T03:34:33;21.73;;;20.43;;
1995;SDS011;38556;47.068;15.408;2023-07-02T03:37:00;22.30;;;21.00;;
1995;SDS011;38556;47.068;15.408;2023-07-02T03:39:29;22.60;;;21.30;;
1995;SDS011;38556;47.068;15.408;2023-07-02T03:41:56;21.80;;;20.60;;
1995;SDS011;38556;47.068;15.408;2023-07-02T03:44:24;22.37;;;21.00;;
1995;SDS011;38556;47.068;15.408;2023-07-02T03:46:51;21.80;;;20.50;;
1995;SDS011;38556;47.068;15.408;2023-07-02T03:49:18;21.97;;;20.67;;
1995;SDS011;38556;47.068;15.408;2023-07-02T03:51:45;22.43;;;21.13;;
1995;SDS011;38556;47.068;15.408;2023-07-02T03:54:13;22.13;;;20.73;;
1995;SDS011;38556;47.068;15.408;2023-07-02T03:56:42;21.30;;;20.10;;
1995;SDS011;38556;47.068;15.408;2023-07-02T03:59:09;21.40;;;20.20;;
1995;SDS011;38556;47.068;15.408;2023-07-02T04:01:36;22.30;;;21.03;;
1995;SDS011;38556;47.068;15.408;2023-07-02T04:04:04;21.60;;;20.30;;
1995;SDS011;38556;47.068;15.408;2023-07-02T04:06:31;22.40;;;21.10;;
1995;SDS011;38556;47.068;15.408;2023-07-02T04:09:00;23.13;;;21.80;;
1995;SDS011;38556;47.068;15.408;2023-07-02T04:11:27;22.80;;;21.40;;
1995;SDS011;38556;47.068;15.408;2023-07-02T04:13:56;22.33;;;21.03;;
1995;SDS011;38556;47.068;15.408;2023-07-02T04:16:24;21.83;;;20.63;;
1995;SDS011;38556;47.068;15.408;2023-07-02T04:18:51;22.00;;;20.90;;
1995;SDS011;38556;47.068;15.408;2023-07-02T04:21:18;22.80;;;21.50;;
1995;SDS011;38556;47.068;15.408;2023-07-02T04:23:46;23.33;;;22.03;;
1995;SDS011;38556;47.068;15.408;2023-07-02T04:26:13;21.50;;;20.40;;
1995;SDS011;38556;47.068;15.408;2023-07-02T04:28:41;22.30;;;20.90;;
1995;SDS011;38556;47.068;15.408;2023-07-02T04:31:09;22.20;;;20.97;;
1995;SDS011;38556;47.068;15.408;2023-07-02T04:33:37;22.80;;;21.57;;
1995;SDS011;38556;47.068;15.408;2023-07-02T04:36:04;23.30;;;21.90;;
1995;SDS011;38556;47.068;15.408;2023-07-02T04:38:32;23.37;;;21.97;;
1995;SDS011;38556;47.068;15.408;2023-07-02T04:40:59;23.50;;;21.47;;
1995;SDS011;38556;47.068;15.408;2023-07-02T04:43:31;22.33;;;21.10;;
1995;SDS011;38556;47.068;15.408;2023-07-02T04:45:58;22.80;;;21.20;;
1995;SDS011;38556;47.068;15.408;2023-07-02T04:48:27;22.70;;;21.20;;
1995;SDS011;38556;47.068;15.408;2023-07-02T04:50:54;21.83;;;20.53;;
1995;SDS011;38556;47.068;15.408;2023-07-02T04:53:22;22.83;;;21.43;;
1995;SDS011;38556;47.068;15.408;2023-07-02T04:55:49;21.67;;;20.57;;
1995;SDS011;38556;47.068;15.408;2023-07-02T04:58:17;22.03;;;20.83;;
1995;SDS011;38556;47.068;15.408;2023-07-02T05:00:44;22.60;;;21.30;;
1995;SDS011;38556;47.068;15.408;2023-07-02T05:03:12;22.43;;;21.10;;
1995;SDS011;38556;47.068;15.408;2023-07-02T05:05:40;22.50;;;21.13;;
1995;SDS011;38556;47.068;15.408;2023-07-02T05:08:08;21.60;;;20.30;;
1995;SDS011;38556;47.068;15.408;2023-07-02T05:10:35;22.73;;;21.13;;
1995;SDS011;38556;47.068;15.408;2023-07-02T05:13:03;21.97;;;20.70;;
1995;SDS011;38556;47.068;15.408;2023-07-02T05:15:30;21.73;;;20.63;;
1995;SDS011;38556;47.068;15.408;2023-07-02T05:17:57;22.60;;;21.30;;
1995;SDS011;38556;47.068;15.408;2023-07-02T05:20:24;22.97;;;21.37;;
1995;SDS011;38556;47.068;15.408;2023-07-02T05:22:53;23.30;;;22.03;;
1995;SDS011;38556;47.068;15.408;2023-07-02T05:25:21;22.30;;;21.07;;
1995;SDS011;38556;47.068;15.408;2023-07-02T05:27:48;22.33;;;21.03;;
1995;SDS011;38556;47.068;15.408;2023-07-02T05:30:15;24.03;;;22.50;;
1995;SDS011;38556;47.068;15.408;2023-07-02T05:32:43;22.57;;;21.33;;
1995;SDS011;38556;47.068;15.408;2023-07-02T05:35:10;23.20;;;21.73;;
1995;SDS011;38556;47.068;15.408;2023-07-02T05:37:37;21.93;;;20.63;;
1995;SDS011;38556;47.068;15.408;2023-07-02T05:40:07;21.83;;;20.50;;
1995;SDS011;38556;47.068;15.408;2023-07-02T05:42:34;22.20;;;21.00;;
1995;SDS011;38556;47.068;15.408;2023-07-02T05:45:03;22.80;;;21.50;;
1995;SDS011;38556;47.068;15.408;2023-07-02T05:47:31;21.90;;;20.60;;
1995;SDS011;38556;47.068;15.408;2023-07-02T05:49:58;22.73;;;21.10;;
1995;SDS011;38556;47.068;15.408;2023-07-02T05:52:25;23.47;;;22.00;;
1995;SDS011;38556;47.068;15.408;2023-07-02T05:54:53;22.37;;;21.10;;
1995;SDS011;38556;47.068;15.408;2023-07-02T05:57:21;22.53;;;21.20;;
1995;SDS011;38556;47.068;15.408;2023-07-02T05:59:49;23.03;;;21.57;;
1995;SDS011;38556;47.068;15.408;2023-07-02T06:02:16;23.20;;;21.90;;
1995;SDS011;38556;47.068;15.408;2023-07-02T06:04:43;23.40;;;22.00;;
1995;SDS011;38556;47.068;15.408;2023-07-02T06:07:11;23.73;;;22.23;;
1995;SDS011;38556;47.068;15.408;2023-07-02T06:09:38;23.10;;;21.80;;
1995;SDS011;38556;47.068;15.408;2023-07-02T06:12:05;23.93;;;22.23;;
1995;SDS011;38556;47.068;15.408;2023-07-02T06:14:34;23.50;;;22.17;;
1995;SDS011;38556;47.068;15.408;2023-07-02T06:17:01;23.10;;;21.70;;
1995;SDS011;38556;47.068;15.408;2023-07-02T06:19:31;24.07;;;22.77;;
1995;SDS011;38556;47.068;15.408;2023-07-02T06:21:58;22.47;;;21.17;;
1995;SDS011;38556;47.068;15.408;2023-07-02T06:24:26;22.47;;;21.27;;
1995;SDS011;38556;47.068;15.408;2023-07-02T06:26:53;23.53;;;22.20;;
1995;SDS011;38556;47.068;15.408;2023-07-02T06:29:21;23.80;;;22.40;;
1995;SDS011;38556;47.068;15.408;2023-07-02T06:31:50;23.10;;;21.80;;
1995;SDS011;38556;47.068;15.408;2023-07-02T06:34:18;23.73;;;21.90;;
1995;SDS011;38556;47.068;15.408;2023-07-02T06:36:45;23.33;;;21.97;;
1995;SDS011;38556;47.068;15.408;2023-07-02T06:39:13;24.00;;;22.60;;
1995;SDS011;38556;47.068;15.408;2023-07-02T06:41:40;21.70;;;20.50;;
1995;SDS011;38556;47.068;15.408;2023-07-02T06:44:07;22.50;;;20.97;;
1995;SDS011;38556;47.068;15.408;2023-07-02T06:46:35;22.30;;;20.80;;
1995;SDS011;38556;47.068;15.408;2023-07-02T06:49:04;22.30;;;21.00;;
1995;SDS011;38556;47.068;15.408;2023-07-02T06:51:31;24.10;;;22.70;;
1995;SDS011;38556;47.068;15.408;2023-07-02T06:54:00;22.33;;;21.13;;
1995;SDS011;38556;47.068;15.408;2023-07-02T06:56:27;23.50;;;22.20;;
1995;SDS011;38556;47.068;15.408;2023-07-02T06:58:55;23.70;;;22.30;;
1995;SDS011;38556;47.068;15.408;2023-07-02T07:01:22;23.80;;;22.30;;
1995;SDS011;38556;47.068;15.408;2023-07-02T07:03:50;23.50;;;22.00;;
1995;SDS011;38556;47.068;15.408;2023-07-02T07:06:18;22.63;;;21.47;;
1995;SDS011;38556;47.068;15.408;2023-07-02T07:08:46;23.57;;;22.00;;
1995;SDS011;38556;47.068;15.408;2023-07-02T07:11:13;24.90;;;23.23;;
1995;SDS011;38556;47.068;15.408;2023-07-02T07:13:41;24.00;;;22.67;;
1995;SDS011;38556;47.068;15.408;2023-07-02T07:16:09;23.30;;;21.90;;
1995;SDS011;38556;47.068;15.408;2023-07-02T07:18:38;21.20;;;20.10;;
1995;SDS011;38556;47.068;15.408;2023-07-02T07:21:05;21.43;;;20.23;;
1995;SDS011;38556;47.068;15.408;2023-07-02T07:23:34;20.33;;;19.30;;
1995;SDS011;38556;47.068;15.408;2023-07-02T07:26:01;21.27;;;20.27;;
1995;SDS011;38556;47.068;15.408;2023-07-02T07:28:28;21.13;;;20.03;;
1995;SDS011;38556;47.068;15.408;2023-07-02T07:30:55;21.43;;;20.33;;
1995;SDS011;38556;47.068;15.408;2023-07-02T07:33:23;21.13;;;19.70;;
1995;SDS011;38556;47.068;15.408;2023-07-02T07:35:50;21.03;;;19.93;;
1995;SDS011;38556;47.068;15.408;2023-07-02T07:38:18;22.07;;;20.70;;
1995;SDS011;38556;47.068;15.408;2023-07-02T07:40:47;26.50;;;24.50;;
1995;SDS011;38556;47.068;15.408;2023-07-02T07:43:15;21.30;;;20.20;;
1995;SDS011;38556;47.068;15.408;2023-07-02T07:45:42;21.27;;;19.80;;
1995;SDS011;38556;47.068;15.408;2023-07-02T07:48:10;21.10;;;19.80;;
1995;SDS011;38556;47.068;15.408;2023-07-02T07:50:37;20.10;;;19.10;;
1995;SDS011;38556;47.068;15.408;2023-07-02T07:53:04;20.77;;;19.70;;
1995;SDS011;38556;47.068;15.408;2023-07-02T07:55:31;19.87;;;18.70;;
1995;SDS011;38556;47.068;15.408;2023-07-02T07:58:01;20.77;;;19.67;;
1995;SDS011;38556;47.068;15.408;2023-07-02T08:00:28;19.40;;;18.40;;
1995;SDS011;38556;47.068;15.408;2023-07-02T08:02:56;19.20;;;18.30;;
1995;SDS011;38556;47.068;15.408;2023-07-02T08:05:24;19.90;;;18.90;;
1995;SDS011;38556;47.068;15.408;2023-07-02T08:07:52;20.20;;;19.17;;
1995;SDS011;38556;47.068;15.408;2023-07-02T08:10:19;20.60;;;19.60;;
1995;SDS011;38556;47.068;15.408;2023-07-02T08:12:47;19.50;;;18.60;;
1995;SDS011;38556;47.068;15.408;2023-07-02T08:15:16;21.90;;;20.60;;
1995;SDS011;38556;47.068;15.408;2023-07-02T08:17:44;19.30;;;18.30;;
1995;SDS011;38556;47.068;15.408;2023-07-02T08:20:11;19.27;;;18.37;;
1995;SDS011;38556;47.068;15.408;2023-07-02T08:22:39;18.47;;;17.63;;
1995;SDS011;38556;47.068;15.408;2023-07-02T08:25:07;18.23;;;17.33;;
1995;SDS011;38556;47.068;15.408;2023-07-02T08:27:36;18.30;;;17.50;;
1995;SDS011;38556;47.068;15.408;2023-07-02T08:30:03;18.00;;;17.20;;
1995;SDS011;38556;47.068;15.408;2023-07-02T08:32:33;18.20;;;17.30;;
1995;SDS011;38556;47.068;15.408;2023-07-02T08:35:00;18.40;;;17.50;;
1995;SDS011;38556;47.068;15.408;2023-07-02T08:37:28;18.13;;;17.30;;
1995;SDS011;38556;47.068;15.408;2023-07-02T08:39:55;18.77;;;17.90;;
1995;SDS011;38556;47.068;15.408;2023-07-02T08:42:22;17.70;;;16.90;;
1995;SDS011;38556;47.068;15.408;2023-07-02T08:44:54;17.60;;;16.60;;
1995;SDS011;38556;47.068;15.408;2023-07-02T08:47:23;18.60;;;17.73;;
1995;SDS011;38556;47.068;15.408;2023-07-02T08:49:52;17.43;;;16.63;;
1995;SDS011;38556;47.068;15.408;2023-07-02T08:52:20;18.00;;;17.20;;
1995;SDS011;38556;47.068;15.408;2023-07-02T08:54:47;17.40;;;16.60;;
1995;SDS011;38556;47.068;15.408;2023-07-02T08:57:15;17.97;;;17.17;;
1995;SDS011;38556;47.068;15.408;2023-07-02T08:59:42;18.03;;;17.23;;
1995;SDS011;38556;47.068;15.408;2023-07-02T09:02:10;19.03;;;18.13;;
1995;SDS011;38556;47.068;15.408;2023-07-02T09:04:37;18.10;;;17.30;;
1995;SDS011;38556;47.068;15.408;2023-07-02T09:07:07;18.07;;;17.27;;
1995;SDS011;38556;47.068;15.408;2023-07-02T09:09:44;21.93;;;20.67;;
1995;SDS011;38556;47.068;15.408;2023-07-02T09:12:21;19.27;;;18.37;;
1995;SDS011;38556;47.068;15.408;2023-07-02T09:14:53;18.50;;;17.43;;
1995;SDS011;38556;47.068;15.408;2023-07-02T09:17:26;18.73;;;17.83;;
1995;SDS011;38556;47.068;15.408;2023-07-02T09:19:55;18.87;;;17.97;;
1995;SDS011;38556;47.068;15.408;2023-07-02T09:22:27;18.17;;;17.37;;
1995;SDS011;38556;47.068;15.408;2023-07-02T09:24:55;19.10;;;18.20;;
1995;SDS011;38556;47.068;15.408;2023-07-02T09:27:32;18.53;;;17.73;;
1995;SDS011;38556;47.068;15.408;2023-07-02T09:30:05;18.80;;;17.90;;
1995;SDS011;38556;47.068;15.408;2023-07-02T09:32:34;18.17;;;17.37;;
1995;SDS011;38556;47.068;15.408;2023-07-02T09:35:01;17.63;;;16.83;;
1995;SDS011;38556;47.068;15.408;2023-07-02T09:37:32;17.23;;;16.43;;
1995;SDS011;38556;47.068;15.408;2023-07-02T09:39:59;17.63;;;16.83;;
1995;SDS011;38556;47.068;15.408;2023-07-02T09:42:31;18.00;;;17.20;;
1995;SDS011;38556;47.068;15.408;2023-07-02T09:45:00;18.50;;;17.50;;
1995;SDS011;38556;47.068;15.408;2023-07-02T09:47:29;18.20;;;17.20;;
1995;SDS011;38556;47.068;15.408;2023-07-02T09:49:59;19.37;;;18.37;;
1995;SDS011;38556;47.068;15.408;2023-07-02T09:52:33;20.77;;;19.67;;
1995;SDS011;38556;47.068;15.408;2023-07-02T09:55:02;19.37;;;18.37;;
1995;SDS011;38556;47.068;15.408;2023-07-02T09:57:30;17.90;;;17.10;;
1995;SDS011;38556;47.068;15.408;2023-07-02T09:59:58;18.20;;;17.40;;
1995;SDS011;38556;47.068;15.408;2023-07-02T10:02:26;17.90;;;17.10;;
1995;SDS011;38556;47.068;15.408;2023-07-02T10:04:53;17.20;;;16.50;;
1995;SDS011;38556;47.068;15.408;2023-07-02T10:07:28;18.50;;;17.70;;
1995;SDS011;38556;47.068;15.408;2023-07-02T10:09:58;17.90;;;17.10;;
1995;SDS011;38556;47.068;15.408;2023-07-02T10:12:26;18.07;;;17.20;;
1995;SDS011;38556;47.068;15.408;2023-07-02T10:14:55;18.30;;;17.50;;
1995;SDS011;38556;47.068;15.408;2023-07-02T10:17:24;18.90;;;18.00;;
1995;SDS011;38556;47.068;15.408;2023-07-02T10:19:56;19.40;;;18.40;;
1995;SDS011;38556;47.068;15.408;2023-07-02T10:22:24;18.70;;;17.90;;
1995;SDS011;38556;47.068;15.408;2023-07-02T10:24:52;19.00;;;18.00;;
1995;SDS011;38556;47.068;15.408;2023-07-02T10:27:33;18.67;;;17.77;;
1995;SDS011;38556;47.068;15.408;2023-07-02T10:30:02;19.70;;;18.70;;
1995;SDS011;38556;47.068;15.408;2023-07-02T10:32:32;19.53;;;18.33;;
1995;SDS011;38556;47.068;15.408;2023-07-02T10:34:59;18.60;;;17.80;;
1995;SDS011;38556;47.068;15.408;2023-07-02T10:37:34;18.80;;;17.90;;
1995;SDS011;38556;47.068;15.408;2023-07-02T10:40:03;18.43;;;17.50;;
1995;SDS011;38556;47.068;15.408;2023-07-02T10:42:33;19.10;;;18.20;;
1995;SDS011;38556;47.068;15.408;2023-07-02T10:45:10;21.20;;;20.10;;
1995;SDS011;38556;47.068;15.408;2023-07-02T10:47:38;22.67;;;21.47;;
1995;SDS011;38556;47.068;15.408;2023-07-02T10:50:13;18.10;;;17.20;;
1995;SDS011;38556;47.068;15.408;2023-07-02T10:52:42;18.10;;;17.30;;
1995;SDS011;38556;47.068;15.408;2023-07-02T10:55:09;18.20;;;17.40;;
1995;SDS011;38556;47.068;15.408;2023-07-02T10:57:38;18.00;;;17.20;;
1995;SDS011;38556;47.068;15.408;2023-07-02T11:00:05;18.10;;;17.30;;
1995;SDS011;38556;47.068;15.408;2023-07-02T11:02:34;18.53;;;17.63;;
1995;SDS011;38556;47.068;15.408;2023-07-02T11:05:01;18.23;;;17.27;;
1995;SDS011;38556;47.068;15.408;2023-07-02T11:07:29;18.90;;;18.00;;
1995;SDS011;38556;47.068;15.408;2023-07-02T11:09:56;19.43;;;18.27;;
1995;SDS011;38556;47.068;15.408;2023-07-02T11:12:29;18.90;;;17.90;;
1995;SDS011;38556;47.068;15.408;2023-07-02T11:15:08;19.70;;;18.80;;
1995;SDS011;38556;47.068;15.408;2023-07-02T11:17:35;19.73;;;18.83;;
1995;SDS011;38556;47.068;15.408;2023-07-02T11:20:04;18.00;;;17.20;;
1995;SDS011;38556;47.068;15.408;2023-07-02T11:22:32;19.00;;;18.10;;
1995;SDS011;38556;47.068;15.408;2023-07-02T11:25:08;17.83;;;17.03;;
1995;SDS011;38556;47.068;15.408;2023-07-02T11:27:36;18.33;;;17.43;;
1995;SDS011;38556;47.068;15.408;2023-07-02T11:30:04;18.60;;;17.80;;
1995;SDS011;38556;47.068;15.408;2023-07-02T11:32:46;18.40;;;17.60;;
1995;SDS011;38556;47.068;15.408;2023-07-02T11:35:15;18.70;;;17.80;;
1995;SDS011;38556;47.068;15.408;2023-07-02T11:37:43;17.80;;;17.00;;
1995;SDS011;38556;47.068;15.408;2023-07-02T11:40:12;18.47;;;17.30;;
1995;SDS011;38556;47.068;15.408;2023-07-02T11:42:39;18.57;;;17.67;;
1995;SDS011;38556;47.068;15.408;2023-07-02T11:45:08;20.20;;;19.10;;
1995;SDS011;38556;47.068;15.408;2023-07-02T11:47:37;21.37;;;20.27;;
1995;SDS011;38556;47.068;15.408;2023-07-02T11:50:05;23.43;;;22.10;;
1995;SDS011;38556;47.068;15.408;2023-07-02T11:52:33;20.40;;;19.30;;
1995;SDS011;38556;47.068;15.408;2023-07-02T11:55:01;19.90;;;18.90;;
1995;SDS011;38556;47.068;15.408;2023-07-02T11:57:28;19.80;;;18.80;;
1995;SDS011;38556;47.068;15.408;2023-07-02T11:59:55;19.20;;;18.30;;
1995;SDS011;38556;47.068;15.408;2023-07-02T12:02:23;21.40;;;20.10;;
1995;SDS011;38556;47.068;15.408;2023-07-02T12:04:52;19.67;;;18.67;;
1995;SDS011;38556;47.068;15.408;2023-07-02T12:07:20;19.67;;;18.77;;
1995;SDS011;38556;47.068;15.408;2023-07-02T12:09:48;19.00;;;18.10;;
1995;SDS011;38556;47.068;15.408;2023-07-02T12:12:16;19.60;;;18.60;;
1995;SDS011;38556;47.068;15.408;2023-07-02T12:14:43;19.87;;;18.87;;
1995;SDS011;38556;47.068;15.408;2023-07-02T12:17:11;39.27;;;37.27;;
1995;SDS011;38556;47.068;15.408;2023-07-02T12:19:38;23.23;;;21.97;;
1995;SDS011;38556;47.068;15.408;2023-07-02T12:22:07;19.30;;;18.40;;
1995;SDS011;38556;47.068;15.408;2023-07-02T12:24:34;17.33;;;16.57;;
1995;SDS011;38556;47.068;15.408;2023-07-02T12:27:02;17.33;;;16.53;;
1995;SDS011;38556;47.068;15.408;2023-07-02T12:29:30;16.90;;;16.13;;
1995;SDS011;38556;47.068;15.408;2023-07-02T12:31:57;17.23;;;16.43;;
1995;SDS011;38556;47.068;15.408;2023-07-02T12:34:24;16.80;;;16.10;;
1995;SDS011;38556;47.068;15.408;2023-07-02T12:36:52;17.43;;;16.63;;
1995;SDS011;38556;47.068;15.408;2023-07-02T12:39:22;16.80;;;16.10;;
1995;SDS011;38556;47.068;15.408;2023-07-02T12:41:50;17.20;;;16.50;;
1995;SDS011;38556;47.068;15.408;2023-07-02T12:44:17;17.60;;;16.70;;
1995;SDS011;38556;47.068;15.408;2023-07-02T12:46:44;17.63;;;16.83;;
1995;SDS011;38556;47.068;15.408;2023-07-02T12:49:11;16.63;;;15.93;;
1995;SDS011;38556;47.068;15.408;2023-07-02T12:51:39;17.47;;;16.67;;
1995;SDS011;38556;47.068;15.408;2023-07-02T12:54:07;18.10;;;17.30;;
1995;SDS011;38556;47.068;15.408;2023-07-02T12:56:36;18.00;;;17.20;;
1995;SDS011;38556;47.068;15.408;2023-07-02T12:59:03;18.20;;;17.40;;
1995;SDS011;38556;47.068;15.408;2023-07-02T13:01:31;18.10;;;17.30;;
1995;SDS011;38556;47.068;15.408;2023-07-02T13:04:00;18.17;;;17.37;;
1995;SDS011;38556;47.068;15.408;2023-07-02T13:06:30;17.33;;;16.63;;
1995;SDS011;38556;47.068;15.408;2023-07-02T13:09:05;17.67;;;16.97;;
1995;SDS011;38556;47.068;15.408;2023-07-02T13:11:35;17.87;;;17.07;;
1995;SDS011;38556;47.068;15.408;2023-07-02T13:14:05;17.20;;;16.40;;
1995;SDS011;38556;47.068;15.408;2023-07-02T13:16:35;18.40;;;17.60;;
1995;SDS011;38556;47.068;15.408;2023-07-02T13:19:04;18.57;;;17.77;;
1995;SDS011;38556;47.068;15.408;2023-07-02T13:21:33;18.80;;;17.90;;
1995;SDS011;38556;47.068;15.408;2023-07-02T13:24:02;18.33;;;17.23;;
1995;SDS011;38556;47.068;15.408;2023-07-02T13:26:32;18.60;;;17.70;;
1995;SDS011;38556;47.068;15.408;2023-07-02T13:29:02;18.10;;;17.30;;
1995;SDS011;38556;47.068;15.408;2023-07-02T13:31:32;18.97;;;17.97;;
1995;SDS011;38556;47.068;15.408;2023-07-02T13:34:00;18.13;;;17.30;;
1995;SDS011;38556;47.068;15.408;2023-07-02T13:36:29;20.90;;;19.90;;
1995;SDS011;38556;47.068;15.408;2023-07-02T13:38:58;18.50;;;17.60;;
1995;SDS011;38556;47.068;15.408;2023-07-02T13:41:29;18.07;;;17.27;;
1995;SDS011;38556;47.068;15.408;2023-07-02T13:43:59;18.40;;;17.60;;
1995;SDS011;38556;47.068;15.408;2023-07-02T13:46:30;18.30;;;17.47;;
1995;SDS011;38556;47.068;15.408;2023-07-02T13:48:58;17.60;;;16.80;;
1995;SDS011;38556;47.068;15.408;2023-07-02T13:51:27;17.57;;;16.77;;
1995;SDS011;38556;47.068;15.408;2023-07-02T13:53:57;18.30;;;17.40;;
1995;SDS011;38556;47.068;15.408;2023-07-02T13:56:25;18.30;;;17.50;;
1995;SDS011;38556;47.068;15.408;2023-07-02T13:59:03;18.80;;;18.00;;
1995;SDS011;38556;47.068;15.408;2023-07-02T14:01:32;19.50;;;18.60;;
1995;SDS011;38556;47.068;15.408;2023-07-02T14:04:02;19.17;;;18.10;;
1995;SDS011;38556;47.068;15.408;2023-07-02T14:06:31;18.70;;;17.83;;
1995;SDS011;38556;47.068;15.408;2023-07-02T14:09:00;19.70;;;18.80;;
1995;SDS011;38556;47.068;15.408;2023-07-02T14:11:29;18.70;;;17.70;;
1995;SDS011;38556;47.068;15.408;2023-07-02T14:13:59;19.00;;;18.10;;
1995;SDS011;38556;47.068;15.408;2023-07-02T14:16:29;20.30;;;19.40;;
1995;SDS011;38556;47.068;15.408;2023-07-02T14:18:58;19.63;;;18.63;;
1995;SDS011;38556;47.068;15.408;2023-07-02T14:21:27;19.87;;;18.97;;
1995;SDS011;38556;47.068;15.408;2023-07-02T14:23:57;19.00;;;18.00;;
1995;SDS011;38556;47.068;15.408;2023-07-02T14:26:25;19.77;;;18.77;;
1995;SDS011;38556;47.068;15.408;2023-07-02T14:28:56;19.87;;;18.87;;